sensor_id;sensor_type;location;lat;lon;timestamp;temperature;humidity
10030;DHT22;5055;52.054;8.524;2023-03-24T00:01:26;12.00;97.00
10030;DHT22;5055;52.054;8.524;2023-03-24T00:03:55;11.90;97.00
10030;DHT22;5055;52.054;8.524;2023-03-24T00:06:25;11.90;97.00
10030;DHT22;5055;52.054;8.524;2023-03-24T00:08:55;11.90;97.00
10030;DHT22;5055;52.054;8.524;2023-03-24T00:11:23;11.90;97.00
10030;DHT22;5055;52.054;8.524;2023-03-24T00:13:52;11.90;97.00
10030;DHT22;5055;52.054;8.524;2023-03-24T00:16:24;11.90;97.00
10030;DHT22;5055;52.054;8.524;2023-03-24T00:18:53;11.80;97.00
10030;DHT22;5055;52.054;8.524;2023-03-24T00:21:22;11.80;97.00
10030;DHT22;5055;52.054;8.524;2023-03-24T00:23:52;11.80;97.00
10030;DHT22;5055;52.054;8.524;2023-03-24T00:26:23;11.80;97.00
10030;DHT22;5055;52.054;8.524;2023-03-24T00:28:52;11.80;97.00
10030;DHT22;5055;52.054;8.524;2023-03-24T00:31:21;11.70;97.00
10030;DHT22;5055;52.054;8.524;2023-03-24T00:33:52;11.70;97.00
10030;DHT22;5055;52.054;8.524;2023-03-24T00:36:22;11.70;97.00
10030;DHT22;5055;52.054;8.524;2023-03-24T00:38:51;11.70;97.00
10030;DHT22;5055;52.054;8.524;2023-03-24T00:41:20;11.70;97.00
10030;DHT22;5055;52.054;8.524;2023-03-24T00:43:56;11.70;97.00
10030;DHT22;5055;52.054;8.524;2023-03-24T00:46:25;11.60;97.00
10030;DHT22;5055;52.054;8.524;2023-03-24T00:48:58;11.60;97.00
10030;DHT22;5055;52.054;8.524;2023-03-24T00:51:31;11.60;97.00
10030;DHT22;5055;52.054;8.524;2023-03-24T00:54:00;11.60;97.00
10030;DHT22;5055;52.054;8.524;2023-03-24T00:56:30;11.60;97.00
10030;DHT22;5055;52.054;8.524;2023-03-24T00:59:00;11.60;97.00
10030;DHT22;5055;52.054;8.524;2023-03-24T01:01:32;11.60;97.00
10030;DHT22;5055;52.054;8.524;2023-03-24T01:04:03;11.60;97.00
10030;DHT22;5055;52.054;8.524;2023-03-24T01:06:34;11.60;97.00
10030;DHT22;5055;52.054;8.524;2023-03-24T01:09:04;11.60;97.00
10030;DHT22;5055;52.054;8.524;2023-03-24T01:11:39;11.60;97.00
10030;DHT22;5055;52.054;8.524;2023-03-24T01:14:10;11.60;97.00
10030;DHT22;5055;52.054;8.524;2023-03-24T01:16:39;11.60;97.00
10030;DHT22;5055;52.054;8.524;2023-03-24T01:19:08;11.60;97.00
10030;DHT22;5055;52.054;8.524;2023-03-24T01:21:37;11.60;97.00
10030;DHT22;5055;52.054;8.524;2023-03-24T01:24:08;11.60;97.00
10030;DHT22;5055;52.054;8.524;2023-03-24T01:26:37;11.60;97.00
10030;DHT22;5055;52.054;8.524;2023-03-24T01:29:05;11.60;97.00
10030;DHT22;5055;52.054;8.524;2023-03-24T01:31:35;11.60;97.00
10030;DHT22;5055;52.054;8.524;2023-03-24T01:34:05;11.60;97.00
10030;DHT22;5055;52.054;8.524;2023-03-24T01:36:35;11.60;97.00
10030;DHT22;5055;52.054;8.524;2023-03-24T01:39:09;11.70;97.00
10030;DHT22;5055;52.054;8.524;2023-03-24T01:41:38;11.70;97.00
10030;DHT22;5055;52.054;8.524;2023-03-24T01:44:28;11.70;97.00
10030;DHT22;5055;52.054;8.524;2023-03-24T01:46:59;11.70;97.00
10030;DHT22;5055;52.054;8.524;2023-03-24T01:49:35;11.70;97.00
10030;DHT22;5055;52.054;8.524;2023-03-24T01:52:08;11.70;97.00
10030;DHT22;5055;52.054;8.524;2023-03-24T01:54:41;11.80;97.00
10030;DHT22;5055;52.054;8.524;2023-03-24T01:57:14;11.80;97.00
10030;DHT22;5055;52.054;8.524;2023-03-24T01:59:47;11.80;97.00
10030;DHT22;5055;52.054;8.524;2023-03-24T02:02:17;11.80;97.00
10030;DHT22;5055;52.054;8.524;2023-03-24T02:04:52;11.80;97.00
10030;DHT22;5055;52.054;8.524;2023-03-24T02:07:30;11.80;97.00
10030;DHT22;5055;52.054;8.524;2023-03-24T02:10:00;11.80;97.00
10030;DHT22;5055;52.054;8.524;2023-03-24T02:12:30;11.80;97.00
10030;DHT22;5055;52.054;8.524;2023-03-24T02:15:00;11.80;97.00
10030;DHT22;5055;52.054;8.524;2023-03-24T02:17:57;11.80;97.00
10030;DHT22;5055;52.054;8.524;2023-03-24T02:26:36;11.90;97.00
10030;DHT22;5055;52.054;8.524;2023-03-24T02:29:37;11.90;97.00
10030;DHT22;5055;52.054;8.524;2023-03-24T02:32:29;11.90;97.00
10030;DHT22;5055;52.054;8.524;2023-03-24T02:35:52;11.90;97.00
10030;DHT22;5055;52.054;8.524;2023-03-24T02:41:32;11.90;97.00
10030;DHT22;5055;52.054;8.524;2023-03-24T02:44:10;11.80;97.00
10030;DHT22;5055;52.054;8.524;2023-03-24T02:46:44;11.90;97.00
10030;DHT22;5055;52.054;8.524;2023-03-24T02:49:20;11.90;97.00
10030;DHT22;5055;52.054;8.524;2023-03-24T02:52:00;11.90;97.00
10030;DHT22;5055;52.054;8.524;2023-03-24T02:54:40;11.90;97.00
10030;DHT22;5055;52.054;8.524;2023-03-24T02:57:18;11.90;97.00
10030;DHT22;5055;52.054;8.524;2023-03-24T02:59:58;12.00;97.00
10030;DHT22;5055;52.054;8.524;2023-03-24T03:02:36;12.00;97.00
10030;DHT22;5055;52.054;8.524;2023-03-24T03:05:10;12.00;97.00
10030;DHT22;5055;52.054;8.524;2023-03-24T03:07:45;12.00;97.00
10030;DHT22;5055;52.054;8.524;2023-03-24T03:10:29;12.00;97.00
10030;DHT22;5055;52.054;8.524;2023-03-24T03:13:04;12.00;97.00
10030;DHT22;5055;52.054;8.524;2023-03-24T03:15:43;12.00;97.00
10030;DHT22;5055;52.054;8.524;2023-03-24T03:18:21;12.00;97.00
10030;DHT22;5055;52.054;8.524;2023-03-24T03:20:57;12.00;97.00
10030;DHT22;5055;52.054;8.524;2023-03-24T03:23:33;12.00;97.00
10030;DHT22;5055;52.054;8.524;2023-03-24T03:26:05;12.10;97.00
10030;DHT22;5055;52.054;8.524;2023-03-24T03:28:42;12.10;97.00
10030;DHT22;5055;52.054;8.524;2023-03-24T03:31:34;12.10;97.00
10030;DHT22;5055;52.054;8.524;2023-03-24T03:34:28;12.10;97.00
10030;DHT22;5055;52.054;8.524;2023-03-24T03:37:18;12.00;97.00
10030;DHT22;5055;52.054;8.524;2023-03-24T03:40:20;12.00;97.00
10030;DHT22;5055;52.054;8.524;2023-03-24T03:43:46;12.00;97.00
10030;DHT22;5055;52.054;8.524;2023-03-24T03:47:11;12.00;97.00
10030;DHT22;5055;52.054;8.524;2023-03-24T03:50:10;12.00;97.00
10030;DHT22;5055;52.054;8.524;2023-03-24T03:52:54;11.90;97.00
10030;DHT22;5055;52.054;8.524;2023-03-24T03:55:41;11.90;97.00
10030;DHT22;5055;52.054;8.524;2023-03-24T03:58:32;11.90;97.00
10030;DHT22;5055;52.054;8.524;2023-03-24T04:01:35;11.90;97.00
10030;DHT22;5055;52.054;8.524;2023-03-24T04:04:35;11.90;97.00
10030;DHT22;5055;52.054;8.524;2023-03-24T04:07:42;11.90;97.00
10030;DHT22;5055;52.054;8.524;2023-03-24T04:14:37;12.00;97.00
10030;DHT22;5055;52.054;8.524;2023-03-24T04:17:56;12.00;97.00
10030;DHT22;5055;52.054;8.524;2023-03-24T04:21:31;12.00;97.00
10030;DHT22;5055;52.054;8.524;2023-03-24T04:25:06;12.10;97.00
10030;DHT22;5055;52.054;8.524;2023-03-24T04:28:22;12.10;97.00
10030;DHT22;5055;52.054;8.524;2023-03-24T04:31:11;12.10;97.00
10030;DHT22;5055;52.054;8.524;2023-03-24T04:34:17;12.10;97.00
10030;DHT22;5055;52.054;8.524;2023-03-24T04:37:04;12.20;97.00
10030;DHT22;5055;52.054;8.524;2023-03-24T04:40:00;12.30;97.00
10030;DHT22;5055;52.054;8.524;2023-03-24T04:42:51;12.40;97.00
10030;DHT22;5055;52.054;8.524;2023-03-24T04:45:49;12.40;97.00
10030;DHT22;5055;52.054;8.524;2023-03-24T04:49:04;12.40;97.00
10030;DHT22;5055;52.054;8.524;2023-03-24T04:52:03;12.40;97.00
10030;DHT22;5055;52.054;8.524;2023-03-24T04:55:12;12.50;97.00
10030;DHT22;5055;52.054;8.524;2023-03-24T04:58:04;12.50;97.00
10030;DHT22;5055;52.054;8.524;2023-03-24T05:00:46;12.50;97.00
10030;DHT22;5055;52.054;8.524;2023-03-24T05:03:36;12.70;97.00
10030;DHT22;5055;52.054;8.524;2023-03-24T05:06:34;12.70;97.00
10030;DHT22;5055;52.054;8.524;2023-03-24T05:09:24;12.80;97.00
10030;DHT22;5055;52.054;8.524;2023-03-24T05:12:30;12.80;97.00
10030;DHT22;5055;52.054;8.524;2023-03-24T05:15:34;12.80;97.00
10030;DHT22;5055;52.054;8.524;2023-03-24T05:18:46;12.90;97.00
10030;DHT22;5055;52.054;8.524;2023-03-24T05:21:46;12.90;97.00
10030;DHT22;5055;52.054;8.524;2023-03-24T05:35:07;13.10;97.00
10030;DHT22;5055;52.054;8.524;2023-03-24T05:38:27;13.10;97.00
10030;DHT22;5055;52.054;8.524;2023-03-24T05:41:10;13.00;97.00
10030;DHT22;5055;52.054;8.524;2023-03-24T05:43:54;13.00;97.00
10030;DHT22;5055;52.054;8.524;2023-03-24T05:46:54;12.90;97.00
10030;DHT22;5055;52.054;8.524;2023-03-24T05:49:56;12.90;97.00
10030;DHT22;5055;52.054;8.524;2023-03-24T06:03:02;12.50;97.00
10030;DHT22;5055;52.054;8.524;2023-03-24T06:05:56;12.60;97.00
10030;DHT22;5055;52.054;8.524;2023-03-24T06:08:42;12.60;97.00
10030;DHT22;5055;52.054;8.524;2023-03-24T06:11:48;12.70;97.00
10030;DHT22;5055;52.054;8.524;2023-03-24T06:14:48;12.70;97.00
10030;DHT22;5055;52.054;8.524;2023-03-24T06:17:32;12.70;97.00
10030;DHT22;5055;52.054;8.524;2023-03-24T06:20:53;12.70;97.00
10030;DHT22;5055;52.054;8.524;2023-03-24T06:23:48;12.70;97.00
10030;DHT22;5055;52.054;8.524;2023-03-24T06:26:53;12.70;97.00
10030;DHT22;5055;52.054;8.524;2023-03-24T06:29:58;12.70;97.00
10030;DHT22;5055;52.054;8.524;2023-03-24T06:33:05;12.60;97.00
10030;DHT22;5055;52.054;8.524;2023-03-24T06:36:14;12.50;97.00
10030;DHT22;5055;52.054;8.524;2023-03-24T06:39:02;12.40;97.00
10030;DHT22;5055;52.054;8.524;2023-03-24T06:41:51;12.30;97.00
10030;DHT22;5055;52.054;8.524;2023-03-24T06:44:36;12.10;97.00
10030;DHT22;5055;52.054;8.524;2023-03-24T06:47:23;12.10;97.00
10030;DHT22;5055;52.054;8.524;2023-03-24T06:50:11;12.00;97.00
10030;DHT22;5055;52.054;8.524;2023-03-24T06:53:05;12.30;97.00
10030;DHT22;5055;52.054;8.524;2023-03-24T06:56:00;12.20;97.00
10030;DHT22;5055;52.054;8.524;2023-03-24T06:58:43;12.40;97.00
10030;DHT22;5055;52.054;8.524;2023-03-24T07:01:30;12.70;97.00
10030;DHT22;5055;52.054;8.524;2023-03-24T07:04:15;12.30;97.00
10030;DHT22;5055;52.054;8.524;2023-03-24T07:07:08;12.00;97.00
10030;DHT22;5055;52.054;8.524;2023-03-24T07:10:28;11.80;97.00
10030;DHT22;5055;52.054;8.524;2023-03-24T07:13:28;11.60;97.00
10030;DHT22;5055;52.054;8.524;2023-03-24T07:16:42;12.10;97.00
10030;DHT22;5055;52.054;8.524;2023-03-24T07:19:55;11.80;97.00
10030;DHT22;5055;52.054;8.524;2023-03-24T07:22:53;11.60;97.00
10030;DHT22;5055;52.054;8.524;2023-03-24T07:29:14;11.80;97.00
10030;DHT22;5055;52.054;8.524;2023-03-24T07:32:09;12.00;97.00
10030;DHT22;5055;52.054;8.524;2023-03-24T07:34:38;12.70;97.00
10030;DHT22;5055;52.054;8.524;2023-03-24T07:37:07;13.00;97.00
10030;DHT22;5055;52.054;8.524;2023-03-24T07:39:35;13.10;97.00
10030;DHT22;5055;52.054;8.524;2023-03-24T07:42:04;13.00;97.00
10030;DHT22;5055;52.054;8.524;2023-03-24T07:44:34;13.10;97.00
10030;DHT22;5055;52.054;8.524;2023-03-24T07:47:03;13.10;97.00
10030;DHT22;5055;52.054;8.524;2023-03-24T07:49:31;13.00;97.00
10030;DHT22;5055;52.054;8.524;2023-03-24T07:51:59;12.80;97.00
10030;DHT22;5055;52.054;8.524;2023-03-24T07:54:32;12.70;97.00
10030;DHT22;5055;52.054;8.524;2023-03-24T07:57:01;12.40;97.00
10030;DHT22;5055;52.054;8.524;2023-03-24T07:59:29;12.60;97.00
10030;DHT22;5055;52.054;8.524;2023-03-24T08:02:01;12.90;97.00
10030;DHT22;5055;52.054;8.524;2023-03-24T08:04:29;13.20;97.00
10030;DHT22;5055;52.054;8.524;2023-03-24T08:06:59;13.30;97.00
10030;DHT22;5055;52.054;8.524;2023-03-24T08:09:27;13.00;97.00
10030;DHT22;5055;52.054;8.524;2023-03-24T08:11:56;13.10;97.00
10030;DHT22;5055;52.054;8.524;2023-03-24T08:14:32;13.20;97.00
10030;DHT22;5055;52.054;8.524;2023-03-24T08:17:02;12.90;97.00
10030;DHT22;5055;52.054;8.524;2023-03-24T08:19:30;12.90;97.00
10030;DHT22;5055;52.054;8.524;2023-03-24T08:21:59;12.80;97.00
10030;DHT22;5055;52.054;8.524;2023-03-24T08:24:28;12.90;97.00
10030;DHT22;5055;52.054;8.524;2023-03-24T08:26:56;13.20;97.00
10030;DHT22;5055;52.054;8.524;2023-03-24T08:29:28;13.30;97.00
10030;DHT22;5055;52.054;8.524;2023-03-24T08:31:57;13.30;97.00
10030;DHT22;5055;52.054;8.524;2023-03-24T08:34:27;13.30;97.00
10030;DHT22;5055;52.054;8.524;2023-03-24T08:36:55;13.40;97.00
10030;DHT22;5055;52.054;8.524;2023-03-24T08:39:23;13.30;97.00
10030;DHT22;5055;52.054;8.524;2023-03-24T08:41:52;13.50;97.00
10030;DHT22;5055;52.054;8.524;2023-03-24T08:44:20;13.50;97.00
10030;DHT22;5055;52.054;8.524;2023-03-24T08:46:49;13.40;97.00
10030;DHT22;5055;52.054;8.524;2023-03-24T08:49:17;13.70;97.00
10030;DHT22;5055;52.054;8.524;2023-03-24T08:51:47;14.10;97.00
10030;DHT22;5055;52.054;8.524;2023-03-24T08:54:15;14.30;97.00
10030;DHT22;5055;52.054;8.524;2023-03-24T08:56:43;14.20;97.00
10030;DHT22;5055;52.054;8.524;2023-03-24T08:59:12;14.10;97.00
10030;DHT22;5055;52.054;8.524;2023-03-24T09:01:40;14.10;97.00
10030;DHT22;5055;52.054;8.524;2023-03-24T09:04:09;13.90;97.00
10030;DHT22;5055;52.054;8.524;2023-03-24T09:06:37;13.80;97.00
10030;DHT22;5055;52.054;8.524;2023-03-24T09:09:07;13.90;97.00
10030;DHT22;5055;52.054;8.524;2023-03-24T09:11:35;14.00;97.00
10030;DHT22;5055;52.054;8.524;2023-03-24T09:14:04;14.00;97.00
10030;DHT22;5055;52.054;8.524;2023-03-24T09:16:36;13.90;97.00
10030;DHT22;5055;52.054;8.524;2023-03-24T09:19:07;13.90;97.00
10030;DHT22;5055;52.054;8.524;2023-03-24T09:21:35;14.00;97.00
10030;DHT22;5055;52.054;8.524;2023-03-24T09:24:04;14.10;97.00
10030;DHT22;5055;52.054;8.524;2023-03-24T09:26:34;14.20;97.00
10030;DHT22;5055;52.054;8.524;2023-03-24T09:29:02;14.00;97.00
10030;DHT22;5055;52.054;8.524;2023-03-24T09:31:31;13.90;97.00
10030;DHT22;5055;52.054;8.524;2023-03-24T09:34:00;14.20;97.00
10030;DHT22;5055;52.054;8.524;2023-03-24T09:36:30;14.10;97.00
10030;DHT22;5055;52.054;8.524;2023-03-24T09:38:58;13.90;97.00
10030;DHT22;5055;52.054;8.524;2023-03-24T09:41:28;13.80;97.00
10030;DHT22;5055;52.054;8.524;2023-03-24T09:44:04;13.90;97.00
10030;DHT22;5055;52.054;8.524;2023-03-24T09:46:36;14.00;97.00
10030;DHT22;5055;52.054;8.524;2023-03-24T09:49:08;14.10;97.00
10030;DHT22;5055;52.054;8.524;2023-03-24T09:51:41;14.20;97.00
10030;DHT22;5055;52.054;8.524;2023-03-24T09:54:13;14.00;97.00
10030;DHT22;5055;52.054;8.524;2023-03-24T09:56:46;14.10;97.00
10030;DHT22;5055;52.054;8.524;2023-03-24T09:59:19;14.20;97.00
10030;DHT22;5055;52.054;8.524;2023-03-24T10:01:48;14.40;97.00
10030;DHT22;5055;52.054;8.524;2023-03-24T10:04:19;14.30;97.00
10030;DHT22;5055;52.054;8.524;2023-03-24T10:06:50;14.30;97.00
10030;DHT22;5055;52.054;8.524;2023-03-24T10:09:24;14.40;97.00
10030;DHT22;5055;52.054;8.524;2023-03-24T10:12:08;14.50;97.00
10030;DHT22;5055;52.054;8.524;2023-03-24T10:14:56;14.60;97.00
10030;DHT22;5055;52.054;8.524;2023-03-24T10:17:35;14.30;97.00
10030;DHT22;5055;52.054;8.524;2023-03-24T10:20:18;14.20;97.00
10030;DHT22;5055;52.054;8.524;2023-03-24T10:22:57;14.00;97.00
10030;DHT22;5055;52.054;8.524;2023-03-24T10:25:42;14.20;97.00
10030;DHT22;5055;52.054;8.524;2023-03-24T10:28:18;14.20;97.00
10030;DHT22;5055;52.054;8.524;2023-03-24T10:30:50;14.20;97.00
10030;DHT22;5055;52.054;8.524;2023-03-24T10:33:19;14.00;97.00
10030;DHT22;5055;52.054;8.524;2023-03-24T10:35:54;13.90;97.00
10030;DHT22;5055;52.054;8.524;2023-03-24T10:38:24;14.00;97.00
10030;DHT22;5055;52.054;8.524;2023-03-24T10:40:53;14.00;97.00
10030;DHT22;5055;52.054;8.524;2023-03-24T10:43:22;13.80;97.00
10030;DHT22;5055;52.054;8.524;2023-03-24T10:45:55;13.70;97.00
10030;DHT22;5055;52.054;8.524;2023-03-24T10:48:40;13.60;97.00
10030;DHT22;5055;52.054;8.524;2023-03-24T10:51:14;13.60;97.00
10030;DHT22;5055;52.054;8.524;2023-03-24T10:53:44;13.70;97.00
10030;DHT22;5055;52.054;8.524;2023-03-24T10:59:13;13.90;97.00
10030;DHT22;5055;52.054;8.524;2023-03-24T11:01:44;13.70;97.00
10030;DHT22;5055;52.054;8.524;2023-03-24T11:04:15;13.80;97.00
10030;DHT22;5055;52.054;8.524;2023-03-24T11:07:04;14.00;97.00
10030;DHT22;5055;52.054;8.524;2023-03-24T11:09:40;14.00;97.00
10030;DHT22;5055;52.054;8.524;2023-03-24T11:12:20;14.10;97.00
10030;DHT22;5055;52.054;8.524;2023-03-24T11:14:49;14.20;97.00
10030;DHT22;5055;52.054;8.524;2023-03-24T11:17:21;14.50;97.00
10030;DHT22;5055;52.054;8.524;2023-03-24T11:19:51;14.60;97.00
10030;DHT22;5055;52.054;8.524;2023-03-24T11:22:21;14.90;97.00
10030;DHT22;5055;52.054;8.524;2023-03-24T11:24:51;15.30;97.00
10030;DHT22;5055;52.054;8.524;2023-03-24T11:27:20;15.10;97.00
10030;DHT22;5055;52.054;8.524;2023-03-24T11:29:50;14.80;97.00
10030;DHT22;5055;52.054;8.524;2023-03-24T11:32:24;14.50;97.00
10030;DHT22;5055;52.054;8.524;2023-03-24T11:35:00;14.50;97.00
10030;DHT22;5055;52.054;8.524;2023-03-24T11:37:32;14.50;97.00
10030;DHT22;5055;52.054;8.524;2023-03-24T11:40:16;14.30;97.00
10030;DHT22;5055;52.054;8.524;2023-03-24T11:42:45;14.20;97.00
10030;DHT22;5055;52.054;8.524;2023-03-24T11:45:26;14.20;97.00
10030;DHT22;5055;52.054;8.524;2023-03-24T11:47:58;14.20;97.00
10030;DHT22;5055;52.054;8.524;2023-03-24T11:50:28;14.30;97.00
10030;DHT22;5055;52.054;8.524;2023-03-24T11:53:01;14.40;97.00
10030;DHT22;5055;52.054;8.524;2023-03-24T11:55:34;14.40;97.00
10030;DHT22;5055;52.054;8.524;2023-03-24T11:58:11;14.80;97.00
10030;DHT22;5055;52.054;8.524;2023-03-24T12:00:46;14.80;97.00
10030;DHT22;5055;52.054;8.524;2023-03-24T12:06:34;15.10;97.00
10030;DHT22;5055;52.054;8.524;2023-03-24T12:09:18;15.40;97.00
10030;DHT22;5055;52.054;8.524;2023-03-24T12:11:57;15.40;97.00
10030;DHT22;5055;52.054;8.524;2023-03-24T12:14:44;15.40;97.00
10030;DHT22;5055;52.054;8.524;2023-03-24T12:17:21;15.00;97.00
10030;DHT22;5055;52.054;8.524;2023-03-24T12:20:00;14.70;97.00
10030;DHT22;5055;52.054;8.524;2023-03-24T12:22:40;14.90;97.00
10030;DHT22;5055;52.054;8.524;2023-03-24T12:25:29;14.80;97.00
10030;DHT22;5055;52.054;8.524;2023-03-24T12:28:13;15.30;97.00
10030;DHT22;5055;52.054;8.524;2023-03-24T12:30:54;15.10;97.00
10030;DHT22;5055;52.054;8.524;2023-03-24T12:33:36;15.50;97.00
10030;DHT22;5055;52.054;8.524;2023-03-24T12:36:29;16.00;97.00
10030;DHT22;5055;52.054;8.524;2023-03-24T12:39:09;16.20;97.00
10030;DHT22;5055;52.054;8.524;2023-03-24T12:41:45;16.00;97.00
10030;DHT22;5055;52.054;8.524;2023-03-24T12:44:23;15.70;97.00
10030;DHT22;5055;52.054;8.524;2023-03-24T12:47:02;15.70;97.00
10030;DHT22;5055;52.054;8.524;2023-03-24T12:49:52;15.50;97.00
10030;DHT22;5055;52.054;8.524;2023-03-24T12:55:32;15.10;97.00
10030;DHT22;5055;52.054;8.524;2023-03-24T12:58:07;14.90;97.00
10030;DHT22;5055;52.054;8.524;2023-03-24T13:00:41;15.00;97.00
10030;DHT22;5055;52.054;8.524;2023-03-24T13:03:14;15.20;97.00
10030;DHT22;5055;52.054;8.524;2023-03-24T13:05:48;15.30;97.00
10030;DHT22;5055;52.054;8.524;2023-03-24T13:08:22;15.20;97.00
10030;DHT22;5055;52.054;8.524;2023-03-24T13:10:59;15.20;97.00
10030;DHT22;5055;52.054;8.524;2023-03-24T13:13:35;15.10;97.00
10030;DHT22;5055;52.054;8.524;2023-03-24T13:16:08;15.10;97.00
10030;DHT22;5055;52.054;8.524;2023-03-24T13:18:41;15.30;97.00
10030;DHT22;5055;52.054;8.524;2023-03-24T13:21:13;15.80;97.00
10030;DHT22;5055;52.054;8.524;2023-03-24T13:23:49;15.90;97.00
10030;DHT22;5055;52.054;8.524;2023-03-24T13:26:33;15.90;97.00
10030;DHT22;5055;52.054;8.524;2023-03-24T13:29:30;15.90;97.00
10030;DHT22;5055;52.054;8.524;2023-03-24T13:32:24;15.60;97.00
10030;DHT22;5055;52.054;8.524;2023-03-24T13:35:00;15.60;97.00
10030;DHT22;5055;52.054;8.524;2023-03-24T13:37:34;15.90;97.00
10030;DHT22;5055;52.054;8.524;2023-03-24T13:40:07;15.80;97.00
10030;DHT22;5055;52.054;8.524;2023-03-24T13:42:46;15.60;97.00
10030;DHT22;5055;52.054;8.524;2023-03-24T13:45:28;15.20;97.00
10030;DHT22;5055;52.054;8.524;2023-03-24T13:48:06;15.00;97.00
10030;DHT22;5055;52.054;8.524;2023-03-24T13:50:51;15.00;97.00
10030;DHT22;5055;52.054;8.524;2023-03-24T13:53:32;15.30;97.00
10030;DHT22;5055;52.054;8.524;2023-03-24T13:56:04;15.50;97.00
10030;DHT22;5055;52.054;8.524;2023-03-24T13:58:50;15.80;97.00
10030;DHT22;5055;52.054;8.524;2023-03-24T14:01:34;16.10;97.00
10030;DHT22;5055;52.054;8.524;2023-03-24T14:04:27;16.40;97.00
10030;DHT22;5055;52.054;8.524;2023-03-24T14:06:56;16.80;97.00
10030;DHT22;5055;52.054;8.524;2023-03-24T14:09:27;16.60;97.00
10030;DHT22;5055;52.054;8.524;2023-03-24T14:12:16;16.50;97.00
10030;DHT22;5055;52.054;8.524;2023-03-24T14:15:13;16.60;97.00
10030;DHT22;5055;52.054;8.524;2023-03-24T14:17:43;16.50;97.00
10030;DHT22;5055;52.054;8.524;2023-03-24T14:20:25;16.00;97.00
10030;DHT22;5055;52.054;8.524;2023-03-24T14:22:54;15.90;97.00
10030;DHT22;5055;52.054;8.524;2023-03-24T14:25:25;16.30;97.00
10030;DHT22;5055;52.054;8.524;2023-03-24T14:28:10;16.60;97.00
10030;DHT22;5055;52.054;8.524;2023-03-24T14:31:02;16.50;97.00
10030;DHT22;5055;52.054;8.524;2023-03-24T14:33:36;16.30;97.00
10030;DHT22;5055;52.054;8.524;2023-03-24T14:36:06;16.00;97.00
10030;DHT22;5055;52.054;8.524;2023-03-24T14:38:40;15.80;97.00
10030;DHT22;5055;52.054;8.524;2023-03-24T14:41:13;15.60;97.00
10030;DHT22;5055;52.054;8.524;2023-03-24T14:43:55;15.30;97.00
10030;DHT22;5055;52.054;8.524;2023-03-24T14:46:40;15.10;97.00
10030;DHT22;5055;52.054;8.524;2023-03-24T14:49:18;15.10;97.00
10030;DHT22;5055;52.054;8.524;2023-03-24T14:51:57;15.20;97.00
10030;DHT22;5055;52.054;8.524;2023-03-24T14:54:34;15.10;97.00
10030;DHT22;5055;52.054;8.524;2023-03-24T14:57:05;15.10;97.00
10030;DHT22;5055;52.054;8.524;2023-03-24T14:59:45;15.10;97.00
10030;DHT22;5055;52.054;8.524;2023-03-24T15:02:27;14.90;97.00
10030;DHT22;5055;52.054;8.524;2023-03-24T15:05:21;14.90;97.00
10030;DHT22;5055;52.054;8.524;2023-03-24T15:08:12;14.80;97.00
10030;DHT22;5055;52.054;8.524;2023-03-24T15:10:45;14.70;97.00
10030;DHT22;5055;52.054;8.524;2023-03-24T15:13:36;14.70;97.00
10030;DHT22;5055;52.054;8.524;2023-03-24T15:16:14;14.60;97.00
10030;DHT22;5055;52.054;8.524;2023-03-24T15:18:47;14.60;97.00
10030;DHT22;5055;52.054;8.524;2023-03-24T15:21:31;14.10;97.00
10030;DHT22;5055;52.054;8.524;2023-03-24T15:24:01;12.60;97.00
10030;DHT22;5055;52.054;8.524;2023-03-24T15:26:31;12.00;97.00
10030;DHT22;5055;52.054;8.524;2023-03-24T15:29:01;11.10;97.00
10030;DHT22;5055;52.054;8.524;2023-03-24T15:31:31;10.70;97.00
10030;DHT22;5055;52.054;8.524;2023-03-24T15:34:07;10.50;97.00
10030;DHT22;5055;52.054;8.524;2023-03-24T15:36:53;10.30;97.00
10030;DHT22;5055;52.054;8.524;2023-03-24T15:39:25;10.20;97.00
10030;DHT22;5055;52.054;8.524;2023-03-24T15:41:55;10.30;97.00
10030;DHT22;5055;52.054;8.524;2023-03-24T15:44:37;10.30;97.00
10030;DHT22;5055;52.054;8.524;2023-03-24T15:47:12;10.30;97.00
10030;DHT22;5055;52.054;8.524;2023-03-24T15:49:49;10.20;97.00
10030;DHT22;5055;52.054;8.524;2023-03-24T15:52:27;10.20;97.00
10030;DHT22;5055;52.054;8.524;2023-03-24T15:55:06;10.20;97.00
10030;DHT22;5055;52.054;8.524;2023-03-24T15:57:38;10.10;97.00
10030;DHT22;5055;52.054;8.524;2023-03-24T16:00:13;10.10;97.00
10030;DHT22;5055;52.054;8.524;2023-03-24T16:02:52;10.10;97.00
10030;DHT22;5055;52.054;8.524;2023-03-24T16:05:25;10.10;97.00
10030;DHT22;5055;52.054;8.524;2023-03-24T16:07:56;10.20;97.00
10030;DHT22;5055;52.054;8.524;2023-03-24T16:10:28;10.30;97.00
10030;DHT22;5055;52.054;8.524;2023-03-24T16:13:15;10.40;97.00
10030;DHT22;5055;52.054;8.524;2023-03-24T16:15:55;10.50;97.00
10030;DHT22;5055;52.054;8.524;2023-03-24T16:18:36;10.50;97.00
10030;DHT22;5055;52.054;8.524;2023-03-24T16:21:15;10.60;97.00
10030;DHT22;5055;52.054;8.524;2023-03-24T16:23:46;10.60;97.00
10030;DHT22;5055;52.054;8.524;2023-03-24T16:26:17;10.60;97.00
10030;DHT22;5055;52.054;8.524;2023-03-24T16:28:45;10.60;97.00
10030;DHT22;5055;52.054;8.524;2023-03-24T16:31:21;10.50;97.00
10030;DHT22;5055;52.054;8.524;2023-03-24T16:33:51;10.50;97.00
10030;DHT22;5055;52.054;8.524;2023-03-24T16:36:28;10.50;97.00
10030;DHT22;5055;52.054;8.524;2023-03-24T16:38:58;10.50;97.00
10030;DHT22;5055;52.054;8.524;2023-03-24T16:41:28;10.50;97.00
10030;DHT22;5055;52.054;8.524;2023-03-24T16:43:57;10.50;97.00
10030;DHT22;5055;52.054;8.524;2023-03-24T16:46:30;10.40;97.00
10030;DHT22;5055;52.054;8.524;2023-03-24T16:49:04;10.40;97.00
10030;DHT22;5055;52.054;8.524;2023-03-24T16:51:34;10.30;97.00
10030;DHT22;5055;52.054;8.524;2023-03-24T16:54:02;10.30;97.00
10030;DHT22;5055;52.054;8.524;2023-03-24T16:56:31;10.20;97.00
10030;DHT22;5055;52.054;8.524;2023-03-24T16:58:59;10.20;97.00
10030;DHT22;5055;52.054;8.524;2023-03-24T17:01:33;10.20;97.00
10030;DHT22;5055;52.054;8.524;2023-03-24T17:04:09;10.10;97.00
10030;DHT22;5055;52.054;8.524;2023-03-24T17:06:42;10.10;97.00
10030;DHT22;5055;52.054;8.524;2023-03-24T17:09:13;10.10;97.00
10030;DHT22;5055;52.054;8.524;2023-03-24T17:11:44;10.00;97.00
10030;DHT22;5055;52.054;8.524;2023-03-24T17:14:14;10.00;97.00
10030;DHT22;5055;52.054;8.524;2023-03-24T17:16:44;10.00;97.00
10030;DHT22;5055;52.054;8.524;2023-03-24T17:19:16;10.00;97.00
10030;DHT22;5055;52.054;8.524;2023-03-24T17:21:49;10.00;97.00
10030;DHT22;5055;52.054;8.524;2023-03-24T17:24:27;10.00;97.00
10030;DHT22;5055;52.054;8.524;2023-03-24T17:27:16;10.00;97.00
10030;DHT22;5055;52.054;8.524;2023-03-24T17:29:47;10.10;97.00
10030;DHT22;5055;52.054;8.524;2023-03-24T17:32:17;10.10;97.00
10030;DHT22;5055;52.054;8.524;2023-03-24T17:34:48;10.20;97.00
10030;DHT22;5055;52.054;8.524;2023-03-24T17:37:18;10.20;97.00
10030;DHT22;5055;52.054;8.524;2023-03-24T17:39:47;10.20;97.00
10030;DHT22;5055;52.054;8.524;2023-03-24T17:42:16;10.20;97.00
10030;DHT22;5055;52.054;8.524;2023-03-24T17:44:45;10.20;97.00
10030;DHT22;5055;52.054;8.524;2023-03-24T17:47:13;10.20;97.00